Reading, PA

11:34 AM EST on December 10, 2019 (GMT -0500)
Reading Regional-Spaatz | | Change Station

Elev 341 ft 40.38 °N, 75.96 °W | Updated 40 minutes ago

Light Rain
Light Rain Mist
53 °F
Feels Like 53 °F
N
0
Wind Variable Wind from North

Today
High -- | Low -- °F
--% Chance of Precip.
Yesterday
High -- | Low -- °F
Precip. -- in
Pressure 29.83 in
Visibility 4.0 miles
Clouds Scattered Clouds 900 ft
Overcast 3800 ft
Dew Point 53 °F
Humidity 100%
Rainfall 0.09 in
Snow Depth Not available.
7:15 AM 4:37 PM
Waxing Gibbous, 97% visible
METAR KRDG 101554Z 00000KT 4SM -RA BR SCT009 OVC038 12/12 A2982 RMK AO2 RAE03B34 SLP102 P0000 T01170117
Pressure 29.83 in
Visibility 4.0 miles
Clouds Scattered Clouds 900 ft
Overcast 3800 ft
Dew Point 53 °F
Humidity 100%
Rainfall 0.09 in
Snow Depth Not available.
7:15 AM 4:37 PM
Waxing Gibbous, 97% visible
METAR KRDG 101554Z 00000KT 4SM -RA BR SCT009 OVC038 12/12 A2982 RMK AO2 RAE03B34 SLP102 P0000 T01170117

Get Severe Weather Alerts

Thanks for signing up!

Be on the lookout for a verification email in your inbox.

You'll start receiving the daily forecast at 6 AM.

×

10-Day Weather Forecast

Almanac

Astronomy

Dec. 10, 2019 Rise Set
Actual Time
Civil Twilight
Nautical Twilight
Astronomical Twilight
Moon
Length of Visible Light
Length of Day
Tomorrow will be .
, % of the Moon is Illuminated

Today's Extremes

State Highs State Lows

Community

WunderPhotos

Category 6

Welcome to Category 6. This is the collective home for Weather Underground's featured writeups by Dr. Jeff Masters (right), Bob Henson (left), Chris Burt, and other regular contributors.

Nearby

Air Quality

  Air Quality AQ Index Pollutant
Not available.

Snow Depth

Station Depth Elevation

Earthquake Activity

City Distance Mag. Time & Date
Minimum magnitude displayed is 2.5.

Coastal Water Temperatures

Place Temperature

Stations

Nearby Weather Stations

Station Location Temp. Windchill Dew Point Humidity Wind Precip. Elev Updated Type
                   

Watches & Warnings

There are currently no watches in effect.